sensor_id;sensor_type;location;lat;lon;timestamp;P1;durP1;ratioP1;P2;durP2;ratioP2
45136;SDS011;30894;51.740;19.498;2022-07-29T00:00:56;5.18;;;1.50;;
45136;SDS011;30894;51.740;19.498;2022-07-29T00:03:22;6.05;;;1.48;;
45136;SDS011;30894;51.740;19.498;2022-07-29T00:05:48;2.53;;;1.48;;
45136;SDS011;30894;51.740;19.498;2022-07-29T00:08:14;3.15;;;1.38;;
45136;SDS011;30894;51.740;19.498;2022-07-29T00:10:41;2.38;;;1.50;;
45136;SDS011;30894;51.740;19.498;2022-07-29T00:13:07;3.08;;;1.60;;
45136;SDS011;30894;51.740;19.498;2022-07-29T00:15:33;5.03;;;1.90;;
45136;SDS011;30894;51.740;19.498;2022-07-29T00:17:59;3.42;;;1.40;;
45136;SDS011;30894;51.740;19.498;2022-07-29T00:20:25;2.35;;;1.55;;
45136;SDS011;30894;51.740;19.498;2022-07-29T00:22:51;3.95;;;1.60;;
45136;SDS011;30894;51.740;19.498;2022-07-29T00:25:18;9.23;;;2.00;;
45136;SDS011;30894;51.740;19.498;2022-07-29T00:27:44;2.33;;;1.30;;
45136;SDS011;30894;51.740;19.498;2022-07-29T00:30:13;1.60;;;1.38;;
45136;SDS011;30894;51.740;19.498;2022-07-29T00:32:39;2.13;;;1.30;;
45136;SDS011;30894;51.740;19.498;2022-07-29T00:35:05;2.17;;;1.35;;
45136;SDS011;30894;51.740;19.498;2022-07-29T00:37:51;4.15;;;1.60;;
45136;SDS011;30894;51.740;19.498;2022-07-29T00:40:17;3.60;;;1.50;;
45136;SDS011;30894;51.740;19.498;2022-07-29T00:42:43;2.45;;;1.50;;
45136;SDS011;30894;51.740;19.498;2022-07-29T00:45:14;4.00;;;1.65;;
45136;SDS011;30894;51.740;19.498;2022-07-29T00:47:41;7.10;;;1.95;;
45136;SDS011;30894;51.740;19.498;2022-07-29T00:50:08;5.28;;;2.10;;
45136;SDS011;30894;51.740;19.498;2022-07-29T00:52:37;4.70;;;1.95;;
45136;SDS011;30894;51.740;19.498;2022-07-29T00:55:06;2.50;;;1.55;;
45136;SDS011;30894;51.740;19.498;2022-07-29T00:57:35;4.10;;;1.75;;
45136;SDS011;30894;51.740;19.498;2022-07-29T01:00:06;3.05;;;1.50;;
45136;SDS011;30894;51.740;19.498;2022-07-29T01:02:36;2.75;;;1.42;;
45136;SDS011;30894;51.740;19.498;2022-07-29T01:05:05;1.98;;;1.27;;
45136;SDS011;30894;51.740;19.498;2022-07-29T01:07:32;4.05;;;1.45;;
45136;SDS011;30894;51.740;19.498;2022-07-29T01:10:01;8.32;;;1.92;;
45136;SDS011;30894;51.740;19.498;2022-07-29T01:12:29;2.53;;;1.63;;
45136;SDS011;30894;51.740;19.498;2022-07-29T01:15:01;2.65;;;1.70;;
45136;SDS011;30894;51.740;19.498;2022-07-29T01:20:31;3.70;;;1.67;;
45136;SDS011;30894;51.740;19.498;2022-07-29T01:23:48;5.22;;;1.65;;
45136;SDS011;30894;51.740;19.498;2022-07-29T01:29:39;4.10;;;1.98;;
45136;SDS011;30894;51.740;19.498;2022-07-29T01:32:19;4.15;;;1.73;;
45136;SDS011;30894;51.740;19.498;2022-07-29T01:40:22;3.95;;;1.58;;
45136;SDS011;30894;51.740;19.498;2022-07-29T01:43:01;2.13;;;1.48;;
45136;SDS011;30894;51.740;19.498;2022-07-29T01:45:43;6.25;;;1.40;;
45136;SDS011;30894;51.740;19.498;2022-07-29T01:51:07;2.63;;;1.45;;
45136;SDS011;30894;51.740;19.498;2022-07-29T01:53:46;4.28;;;1.75;;
45136;SDS011;30894;51.740;19.498;2022-07-29T01:56:41;3.75;;;1.48;;
45136;SDS011;30894;51.740;19.498;2022-07-29T01:59:09;2.75;;;1.45;;
45136;SDS011;30894;51.740;19.498;2022-07-29T02:01:37;2.72;;;1.75;;
45136;SDS011;30894;51.740;19.498;2022-07-29T02:04:06;4.47;;;1.77;;
45136;SDS011;30894;51.740;19.498;2022-07-29T02:06:35;3.95;;;2.30;;
45136;SDS011;30894;51.740;19.498;2022-07-29T02:09:04;7.90;;;1.70;;
45136;SDS011;30894;51.740;19.498;2022-07-29T02:11:33;2.63;;;1.60;;
45136;SDS011;30894;51.740;19.498;2022-07-29T02:14:00;4.72;;;1.80;;
45136;SDS011;30894;51.740;19.498;2022-07-29T02:16:29;2.08;;;1.33;;
45136;SDS011;30894;51.740;19.498;2022-07-29T02:18:57;3.58;;;1.65;;
45136;SDS011;30894;51.740;19.498;2022-07-29T02:21:27;2.38;;;1.33;;
45136;SDS011;30894;51.740;19.498;2022-07-29T02:23:55;5.22;;;1.60;;
45136;SDS011;30894;51.740;19.498;2022-07-29T02:26:24;3.15;;;1.30;;
45136;SDS011;30894;51.740;19.498;2022-07-29T02:28:53;6.38;;;1.77;;
45136;SDS011;30894;51.740;19.498;2022-07-29T02:31:23;3.40;;;1.70;;
45136;SDS011;30894;51.740;19.498;2022-07-29T02:33:54;4.47;;;1.65;;
45136;SDS011;30894;51.740;19.498;2022-07-29T02:36:21;3.15;;;1.50;;
45136;SDS011;30894;51.740;19.498;2022-07-29T02:38:48;3.25;;;1.80;;
45136;SDS011;30894;51.740;19.498;2022-07-29T02:41:20;4.00;;;1.63;;
45136;SDS011;30894;51.740;19.498;2022-07-29T02:43:54;3.90;;;1.70;;
45136;SDS011;30894;51.740;19.498;2022-07-29T02:46:26;2.75;;;1.83;;
45136;SDS011;30894;51.740;19.498;2022-07-29T02:49:14;3.03;;;1.60;;
45136;SDS011;30894;51.740;19.498;2022-07-29T02:51:54;4.15;;;1.70;;
45136;SDS011;30894;51.740;19.498;2022-07-29T02:54:26;3.03;;;1.73;;
45136;SDS011;30894;51.740;19.498;2022-07-29T02:59:41;5.32;;;1.98;;
45136;SDS011;30894;51.740;19.498;2022-07-29T03:02:09;3.47;;;1.40;;
45136;SDS011;30894;51.740;19.498;2022-07-29T03:04:36;3.38;;;1.83;;
45136;SDS011;30894;51.740;19.498;2022-07-29T03:07:05;2.88;;;1.50;;
45136;SDS011;30894;51.740;19.498;2022-07-29T03:09:32;3.03;;;1.70;;
45136;SDS011;30894;51.740;19.498;2022-07-29T03:11:58;3.17;;;1.60;;
45136;SDS011;30894;51.740;19.498;2022-07-29T03:14:25;3.92;;;1.73;;
45136;SDS011;30894;51.740;19.498;2022-07-29T03:16:52;4.25;;;1.70;;
45136;SDS011;30894;51.740;19.498;2022-07-29T03:19:19;6.22;;;1.70;;
45136;SDS011;30894;51.740;19.498;2022-07-29T03:21:46;4.22;;;1.65;;
45136;SDS011;30894;51.740;19.498;2022-07-29T03:24:26;1.70;;;1.35;;
45136;SDS011;30894;51.740;19.498;2022-07-29T03:27:00;3.00;;;1.45;;
45136;SDS011;30894;51.740;19.498;2022-07-29T03:29:27;6.28;;;1.55;;
45136;SDS011;30894;51.740;19.498;2022-07-29T03:31:53;1.92;;;1.48;;
45136;SDS011;30894;51.740;19.498;2022-07-29T03:34:19;2.63;;;1.60;;
45136;SDS011;30894;51.740;19.498;2022-07-29T03:36:46;2.95;;;1.48;;
45136;SDS011;30894;51.740;19.498;2022-07-29T03:39:13;1.98;;;1.27;;
45136;SDS011;30894;51.740;19.498;2022-07-29T03:41:45;3.50;;;1.75;;
45136;SDS011;30894;51.740;19.498;2022-07-29T03:44:15;2.58;;;1.20;;
45136;SDS011;30894;51.740;19.498;2022-07-29T03:46:43;6.68;;;1.40;;
45136;SDS011;30894;51.740;19.498;2022-07-29T03:49:11;6.75;;;1.80;;
45136;SDS011;30894;51.740;19.498;2022-07-29T03:51:39;1.95;;;1.60;;
45136;SDS011;30894;51.740;19.498;2022-07-29T03:54:05;3.38;;;1.73;;
45136;SDS011;30894;51.740;19.498;2022-07-29T03:56:32;5.20;;;1.60;;
45136;SDS011;30894;51.740;19.498;2022-07-29T03:59:03;2.85;;;1.73;;
45136;SDS011;30894;51.740;19.498;2022-07-29T04:01:29;3.35;;;1.52;;
45136;SDS011;30894;51.740;19.498;2022-07-29T04:03:59;2.22;;;1.67;;
45136;SDS011;30894;51.740;19.498;2022-07-29T04:06:36;2.17;;;1.48;;
45136;SDS011;30894;51.740;19.498;2022-07-29T04:09:07;5.38;;;1.73;;
45136;SDS011;30894;51.740;19.498;2022-07-29T04:11:34;2.92;;;1.95;;
45136;SDS011;30894;51.740;19.498;2022-07-29T04:14:01;7.65;;;1.73;;
45136;SDS011;30894;51.740;19.498;2022-07-29T04:16:27;6.68;;;1.73;;
45136;SDS011;30894;51.740;19.498;2022-07-29T04:18:53;5.00;;;1.58;;
45136;SDS011;30894;51.740;19.498;2022-07-29T04:21:19;3.83;;;1.60;;
45136;SDS011;30894;51.740;19.498;2022-07-29T04:23:45;3.20;;;1.42;;
45136;SDS011;30894;51.740;19.498;2022-07-29T04:26:15;2.50;;;1.60;;
45136;SDS011;30894;51.740;19.498;2022-07-29T04:28:45;1.90;;;1.50;;
45136;SDS011;30894;51.740;19.498;2022-07-29T04:31:11;5.68;;;1.85;;
45136;SDS011;30894;51.740;19.498;2022-07-29T04:33:38;8.80;;;2.10;;
45136;SDS011;30894;51.740;19.498;2022-07-29T04:36:05;6.00;;;1.55;;
45136;SDS011;30894;51.740;19.498;2022-07-29T04:38:31;4.15;;;1.63;;
45136;SDS011;30894;51.740;19.498;2022-07-29T04:40:57;3.15;;;1.35;;
45136;SDS011;30894;51.740;19.498;2022-07-29T04:43:23;8.05;;;1.75;;
45136;SDS011;30894;51.740;19.498;2022-07-29T04:45:49;9.07;;;1.58;;
45136;SDS011;30894;51.740;19.498;2022-07-29T04:48:15;1.58;;;1.30;;
45136;SDS011;30894;51.740;19.498;2022-07-29T04:50:42;1.40;;;1.30;;
45136;SDS011;30894;51.740;19.498;2022-07-29T04:53:07;3.22;;;1.50;;
45136;SDS011;30894;51.740;19.498;2022-07-29T04:55:34;4.05;;;1.70;;
45136;SDS011;30894;51.740;19.498;2022-07-29T04:58:01;2.13;;;1.58;;
45136;SDS011;30894;51.740;19.498;2022-07-29T05:00:27;9.65;;;1.88;;
45136;SDS011;30894;51.740;19.498;2022-07-29T05:02:54;5.15;;;1.90;;
45136;SDS011;30894;51.740;19.498;2022-07-29T05:05:20;5.63;;;1.60;;
45136;SDS011;30894;51.740;19.498;2022-07-29T05:07:45;6.07;;;1.88;;
45136;SDS011;30894;51.740;19.498;2022-07-29T05:10:11;6.30;;;1.80;;
45136;SDS011;30894;51.740;19.498;2022-07-29T05:12:37;3.88;;;1.70;;
45136;SDS011;30894;51.740;19.498;2022-07-29T05:15:03;2.03;;;1.50;;
45136;SDS011;30894;51.740;19.498;2022-07-29T05:17:30;3.70;;;1.98;;
45136;SDS011;30894;51.740;19.498;2022-07-29T05:19:56;6.20;;;1.38;;
45136;SDS011;30894;51.740;19.498;2022-07-29T05:22:22;3.00;;;1.58;;
45136;SDS011;30894;51.740;19.498;2022-07-29T05:24:48;4.80;;;1.75;;
45136;SDS011;30894;51.740;19.498;2022-07-29T05:27:14;3.03;;;1.55;;
45136;SDS011;30894;51.740;19.498;2022-07-29T05:29:40;2.90;;;1.65;;
45136;SDS011;30894;51.740;19.498;2022-07-29T05:32:06;4.80;;;1.77;;
45136;SDS011;30894;51.740;19.498;2022-07-29T05:34:32;5.18;;;1.50;;
45136;SDS011;30894;51.740;19.498;2022-07-29T05:36:58;3.40;;;1.27;;
45136;SDS011;30894;51.740;19.498;2022-07-29T05:39:24;2.40;;;1.50;;
45136;SDS011;30894;51.740;19.498;2022-07-29T05:41:50;4.13;;;1.23;;
45136;SDS011;30894;51.740;19.498;2022-07-29T05:44:16;4.00;;;1.48;;
45136;SDS011;30894;51.740;19.498;2022-07-29T05:46:42;2.53;;;1.40;;
45136;SDS011;30894;51.740;19.498;2022-07-29T05:49:08;2.40;;;1.27;;
45136;SDS011;30894;51.740;19.498;2022-07-29T05:51:34;10.13;;;1.63;;
45136;SDS011;30894;51.740;19.498;2022-07-29T05:54:01;4.03;;;1.42;;
45136;SDS011;30894;51.740;19.498;2022-07-29T05:56:27;4.40;;;1.60;;
45136;SDS011;30894;51.740;19.498;2022-07-29T05:58:53;1.40;;;1.17;;
45136;SDS011;30894;51.740;19.498;2022-07-29T06:01:21;1.65;;;1.27;;
45136;SDS011;30894;51.740;19.498;2022-07-29T06:03:47;1.85;;;1.35;;
45136;SDS011;30894;51.740;19.498;2022-07-29T06:06:13;6.55;;;1.23;;
45136;SDS011;30894;51.740;19.498;2022-07-29T06:08:39;5.35;;;1.23;;
45136;SDS011;30894;51.740;19.498;2022-07-29T06:11:05;4.75;;;1.48;;
45136;SDS011;30894;51.740;19.498;2022-07-29T06:13:33;4.70;;;1.50;;
45136;SDS011;30894;51.740;19.498;2022-07-29T06:16:00;3.60;;;1.15;;
45136;SDS011;30894;51.740;19.498;2022-07-29T06:18:25;3.90;;;1.08;;
45136;SDS011;30894;51.740;19.498;2022-07-29T06:20:52;1.40;;;1.02;;
45136;SDS011;30894;51.740;19.498;2022-07-29T06:23:19;1.35;;;1.23;;
45136;SDS011;30894;51.740;19.498;2022-07-29T06:25:46;1.15;;;1.02;;
45136;SDS011;30894;51.740;19.498;2022-07-29T06:28:12;2.20;;;0.98;;
45136;SDS011;30894;51.740;19.498;2022-07-29T06:30:38;0.90;;;0.77;;
45136;SDS011;30894;51.740;19.498;2022-07-29T06:33:04;1.77;;;1.00;;
45136;SDS011;30894;51.740;19.498;2022-07-29T06:35:34;2.75;;;1.15;;
45136;SDS011;30894;51.740;19.498;2022-07-29T06:38:04;2.42;;;0.73;;
45136;SDS011;30894;51.740;19.498;2022-07-29T06:40:30;2.10;;;0.98;;
45136;SDS011;30894;51.740;19.498;2022-07-29T06:43:14;2.78;;;0.70;;
45136;SDS011;30894;51.740;19.498;2022-07-29T06:45:41;2.30;;;0.95;;
45136;SDS011;30894;51.740;19.498;2022-07-29T06:48:08;2.45;;;1.00;;
45136;SDS011;30894;51.740;19.498;2022-07-29T06:50:35;5.85;;;1.20;;
45136;SDS011;30894;51.740;19.498;2022-07-29T06:53:01;1.52;;;1.00;;
45136;SDS011;30894;51.740;19.498;2022-07-29T06:55:27;3.67;;;0.75;;
45136;SDS011;30894;51.740;19.498;2022-07-29T06:57:53;1.40;;;0.80;;
45136;SDS011;30894;51.740;19.498;2022-07-29T07:00:19;2.72;;;1.00;;
45136;SDS011;30894;51.740;19.498;2022-07-29T07:02:45;1.75;;;0.80;;
45136;SDS011;30894;51.740;19.498;2022-07-29T07:05:11;2.63;;;0.70;;
45136;SDS011;30894;51.740;19.498;2022-07-29T07:07:37;2.63;;;0.80;;
45136;SDS011;30894;51.740;19.498;2022-07-29T07:10:03;4.47;;;0.93;;
45136;SDS011;30894;51.740;19.498;2022-07-29T07:12:30;1.95;;;1.00;;
45136;SDS011;30894;51.740;19.498;2022-07-29T07:14:56;1.17;;;0.77;;
45136;SDS011;30894;51.740;19.498;2022-07-29T07:17:23;3.17;;;0.60;;
45136;SDS011;30894;51.740;19.498;2022-07-29T07:19:49;5.82;;;0.95;;
45136;SDS011;30894;51.740;19.498;2022-07-29T07:22:15;5.38;;;1.00;;
45136;SDS011;30894;51.740;19.498;2022-07-29T07:24:41;0.98;;;0.80;;
45136;SDS011;30894;51.740;19.498;2022-07-29T07:27:07;2.40;;;0.80;;
45136;SDS011;30894;51.740;19.498;2022-07-29T07:29:33;1.20;;;0.75;;
45136;SDS011;30894;51.740;19.498;2022-07-29T07:31:59;2.38;;;0.77;;
45136;SDS011;30894;51.740;19.498;2022-07-29T07:34:25;1.35;;;0.75;;
45136;SDS011;30894;51.740;19.498;2022-07-29T07:36:51;3.28;;;0.55;;
45136;SDS011;30894;51.740;19.498;2022-07-29T07:39:17;1.23;;;0.75;;
45136;SDS011;30894;51.740;19.498;2022-07-29T07:41:43;2.05;;;0.70;;
45136;SDS011;30894;51.740;19.498;2022-07-29T07:44:10;1.85;;;0.50;;
45136;SDS011;30894;51.740;19.498;2022-07-29T07:46:36;5.65;;;0.80;;
45136;SDS011;30894;51.740;19.498;2022-07-29T07:49:02;2.47;;;0.60;;
45136;SDS011;30894;51.740;19.498;2022-07-29T07:51:28;3.38;;;0.73;;
45136;SDS011;30894;51.740;19.498;2022-07-29T07:53:54;2.80;;;0.65;;
45136;SDS011;30894;51.740;19.498;2022-07-29T07:56:20;0.80;;;0.60;;
45136;SDS011;30894;51.740;19.498;2022-07-29T07:58:46;1.05;;;0.77;;
45136;SDS011;30894;51.740;19.498;2022-07-29T08:01:13;0.85;;;0.50;;
45136;SDS011;30894;51.740;19.498;2022-07-29T08:03:39;5.22;;;1.25;;
45136;SDS011;30894;51.740;19.498;2022-07-29T08:06:05;1.35;;;0.60;;
45136;SDS011;30894;51.740;19.498;2022-07-29T08:08:31;2.03;;;0.80;;
45136;SDS011;30894;51.740;19.498;2022-07-29T08:10:57;1.38;;;0.60;;
45136;SDS011;30894;51.740;19.498;2022-07-29T08:13:25;1.98;;;0.70;;
45136;SDS011;30894;51.740;19.498;2022-07-29T08:15:55;1.55;;;0.47;;
45136;SDS011;30894;51.740;19.498;2022-07-29T08:18:27;0.70;;;0.65;;
45136;SDS011;30894;51.740;19.498;2022-07-29T08:20:54;4.25;;;0.80;;
45136;SDS011;30894;51.740;19.498;2022-07-29T08:23:21;0.70;;;0.68;;
45136;SDS011;30894;51.740;19.498;2022-07-29T08:25:48;0.60;;;0.60;;
45136;SDS011;30894;51.740;19.498;2022-07-29T08:28:15;3.92;;;0.80;;
45136;SDS011;30894;51.740;19.498;2022-07-29T08:30:43;0.93;;;0.60;;
45136;SDS011;30894;51.740;19.498;2022-07-29T08:33:09;1.33;;;0.60;;
45136;SDS011;30894;51.740;19.498;2022-07-29T08:35:35;1.63;;;0.80;;
45136;SDS011;30894;51.740;19.498;2022-07-29T08:38:01;2.03;;;0.70;;
45136;SDS011;30894;51.740;19.498;2022-07-29T08:40:28;0.57;;;0.50;;
45136;SDS011;30894;51.740;19.498;2022-07-29T08:42:54;2.67;;;0.88;;
45136;SDS011;30894;51.740;19.498;2022-07-29T08:45:20;1.23;;;0.50;;
45136;SDS011;30894;51.740;19.498;2022-07-29T08:47:48;5.90;;;0.63;;
45136;SDS011;30894;51.740;19.498;2022-07-29T08:50:14;0.70;;;0.57;;
45136;SDS011;30894;51.740;19.498;2022-07-29T08:52:40;1.05;;;0.60;;
45136;SDS011;30894;51.740;19.498;2022-07-29T08:55:07;1.38;;;0.63;;
45136;SDS011;30894;51.740;19.498;2022-07-29T08:57:35;2.67;;;0.73;;
45136;SDS011;30894;51.740;19.498;2022-07-29T09:00:06;2.30;;;0.68;;
45136;SDS011;30894;51.740;19.498;2022-07-29T09:02:41;3.13;;;0.90;;
45136;SDS011;30894;51.740;19.498;2022-07-29T09:05:10;0.47;;;0.47;;
45136;SDS011;30894;51.740;19.498;2022-07-29T09:07:36;0.38;;;0.38;;
45136;SDS011;30894;51.740;19.498;2022-07-29T09:10:07;1.85;;;0.50;;
45136;SDS011;30894;51.740;19.498;2022-07-29T09:12:34;0.50;;;0.50;;
45136;SDS011;30894;51.740;19.498;2022-07-29T09:15:02;2.35;;;0.57;;
45136;SDS011;30894;51.740;19.498;2022-07-29T09:17:41;1.23;;;0.50;;
45136;SDS011;30894;51.740;19.498;2022-07-29T09:20:14;1.40;;;0.57;;
45136;SDS011;30894;51.740;19.498;2022-07-29T09:22:47;4.65;;;0.80;;
45136;SDS011;30894;51.740;19.498;2022-07-29T09:25:34;0.30;;;0.30;;
45136;SDS011;30894;51.740;19.498;2022-07-29T09:28:06;2.38;;;0.60;;
45136;SDS011;30894;51.740;19.498;2022-07-29T09:30:58;1.13;;;0.40;;
45136;SDS011;30894;51.740;19.498;2022-07-29T09:33:23;6.70;;;0.60;;
45136;SDS011;30894;51.740;19.498;2022-07-29T09:36:02;3.50;;;0.70;;
45136;SDS011;30894;51.740;19.498;2022-07-29T09:38:31;2.47;;;0.65;;
45136;SDS011;30894;51.740;19.498;2022-07-29T09:40:59;1.38;;;0.52;;
45136;SDS011;30894;51.740;19.498;2022-07-29T09:43:27;0.43;;;0.40;;
45136;SDS011;30894;51.740;19.498;2022-07-29T09:45:54;0.70;;;0.40;;
45136;SDS011;30894;51.740;19.498;2022-07-29T09:48:21;4.00;;;0.60;;
45136;SDS011;30894;51.740;19.498;2022-07-29T09:50:50;0.47;;;0.47;;
45136;SDS011;30894;51.740;19.498;2022-07-29T09:53:36;0.60;;;0.50;;
45136;SDS011;30894;51.740;19.498;2022-07-29T09:56:03;3.22;;;0.60;;
45136;SDS011;30894;51.740;19.498;2022-07-29T09:58:30;1.35;;;0.93;;
45136;SDS011;30894;51.740;19.498;2022-07-29T13:30:35;2.08;;;1.05;;
45136;SDS011;30894;51.740;19.498;2022-07-29T13:33:01;2.03;;;0.65;;
45136;SDS011;30894;51.740;19.498;2022-07-29T13:35:27;1.65;;;0.75;;
45136;SDS011;30894;51.740;19.498;2022-07-29T13:37:54;0.50;;;0.50;;
45136;SDS011;30894;51.740;19.498;2022-07-29T13:40:21;0.88;;;0.70;;
45136;SDS011;30894;51.740;19.498;2022-07-29T13:42:46;4.15;;;0.75;;
45136;SDS011;30894;51.740;19.498;2022-07-29T13:45:12;2.17;;;0.80;;
45136;SDS011;30894;51.740;19.498;2022-07-29T13:47:39;3.45;;;0.68;;
45136;SDS011;30894;51.740;19.498;2022-07-29T13:50:06;3.15;;;0.70;;
45136;SDS011;30894;51.740;19.498;2022-07-29T13:52:34;4.65;;;0.98;;
45136;SDS011;30894;51.740;19.498;2022-07-29T13:55:02;3.88;;;0.90;;
45136;SDS011;30894;51.740;19.498;2022-07-29T13:57:29;1.23;;;0.77;;
45136;SDS011;30894;51.740;19.498;2022-07-29T13:59:55;3.03;;;0.75;;
45136;SDS011;30894;51.740;19.498;2022-07-29T14:02:22;1.70;;;0.85;;
45136;SDS011;30894;51.740;19.498;2022-07-29T14:04:48;1.20;;;1.10;;
45136;SDS011;30894;51.740;19.498;2022-07-29T14:07:14;2.35;;;0.90;;
45136;SDS011;30894;51.740;19.498;2022-07-29T14:09:40;1.58;;;0.82;;
45136;SDS011;30894;51.740;19.498;2022-07-29T14:12:06;3.22;;;0.90;;
45136;SDS011;30894;51.740;19.498;2022-07-29T14:14:33;1.25;;;0.90;;
45136;SDS011;30894;51.740;19.498;2022-07-29T14:17:00;5.40;;;0.93;;
45136;SDS011;30894;51.740;19.498;2022-07-29T14:19:28;3.55;;;0.98;;
45136;SDS011;30894;51.740;19.498;2022-07-29T14:21:53;1.67;;;0.75;;
45136;SDS011;30894;51.740;19.498;2022-07-29T14:24:20;1.80;;;0.80;;
45136;SDS011;30894;51.740;19.498;2022-07-29T14:26:45;1.48;;;0.80;;
45136;SDS011;30894;51.740;19.498;2022-07-29T14:29:12;1.13;;;0.82;;
45136;SDS011;30894;51.740;19.498;2022-07-29T14:31:38;0.75;;;0.70;;
45136;SDS011;30894;51.740;19.498;2022-07-29T14:34:04;0.95;;;0.80;;
45136;SDS011;30894;51.740;19.498;2022-07-29T14:36:30;3.25;;;1.00;;
45136;SDS011;30894;51.740;19.498;2022-07-29T14:38:57;1.67;;;0.88;;
45136;SDS011;30894;51.740;19.498;2022-07-29T14:41:23;1.05;;;0.93;;
45136;SDS011;30894;51.740;19.498;2022-07-29T14:43:50;1.13;;;0.65;;
45136;SDS011;30894;51.740;19.498;2022-07-29T14:46:18;10.85;;;1.15;;
45136;SDS011;30894;51.740;19.498;2022-07-29T14:48:44;6.63;;;1.10;;
45136;SDS011;30894;51.740;19.498;2022-07-29T14:51:10;1.63;;;0.93;;
45136;SDS011;30894;51.740;19.498;2022-07-29T14:53:36;1.33;;;0.90;;
45136;SDS011;30894;51.740;19.498;2022-07-29T14:56:02;2.33;;;0.88;;
45136;SDS011;30894;51.740;19.498;2022-07-29T14:58:31;1.88;;;1.10;;
45136;SDS011;30894;51.740;19.498;2022-07-29T15:00:57;2.20;;;0.88;;
45136;SDS011;30894;51.740;19.498;2022-07-29T15:03:23;3.85;;;0.90;;
45136;SDS011;30894;51.740;19.498;2022-07-29T15:05:49;1.13;;;0.75;;
45136;SDS011;30894;51.740;19.498;2022-07-29T15:08:15;0.82;;;0.80;;
45136;SDS011;30894;51.740;19.498;2022-07-29T15:10:41;1.63;;;0.85;;
45136;SDS011;30894;51.740;19.498;2022-07-29T15:13:07;2.42;;;1.13;;
45136;SDS011;30894;51.740;19.498;2022-07-29T15:15:33;2.03;;;1.08;;
45136;SDS011;30894;51.740;19.498;2022-07-29T15:17:59;1.33;;;1.17;;
45136;SDS011;30894;51.740;19.498;2022-07-29T15:20:25;0.75;;;0.70;;
45136;SDS011;30894;51.740;19.498;2022-07-29T15:22:52;4.35;;;0.90;;
45136;SDS011;30894;51.740;19.498;2022-07-29T15:25:21;2.47;;;0.85;;
45136;SDS011;30894;51.740;19.498;2022-07-29T15:27:48;1.20;;;0.75;;
45136;SDS011;30894;51.740;19.498;2022-07-29T15:30:14;1.38;;;0.77;;
45136;SDS011;30894;51.740;19.498;2022-07-29T15:32:43;2.47;;;0.63;;
45136;SDS011;30894;51.740;19.498;2022-07-29T15:35:10;2.15;;;0.88;;
45136;SDS011;30894;51.740;19.498;2022-07-29T15:37:39;0.82;;;0.50;;
45136;SDS011;30894;51.740;19.498;2022-07-29T15:40:05;1.33;;;0.80;;
45136;SDS011;30894;51.740;19.498;2022-07-29T15:42:33;3.38;;;0.90;;
45136;SDS011;30894;51.740;19.498;2022-07-29T15:45:02;1.52;;;0.82;;
45136;SDS011;30894;51.740;19.498;2022-07-29T15:47:29;3.90;;;0.88;;
45136;SDS011;30894;51.740;19.498;2022-07-29T15:49:55;2.40;;;0.90;;
45136;SDS011;30894;51.740;19.498;2022-07-29T15:52:21;3.17;;;0.60;;
45136;SDS011;30894;51.740;19.498;2022-07-29T15:54:48;1.88;;;0.90;;
45136;SDS011;30894;51.740;19.498;2022-07-29T15:57:14;7.05;;;0.93;;
45136;SDS011;30894;51.740;19.498;2022-07-29T15:59:40;0.70;;;0.70;;
45136;SDS011;30894;51.740;19.498;2022-07-29T16:02:06;0.98;;;0.80;;
45136;SDS011;30894;51.740;19.498;2022-07-29T16:04:32;1.48;;;0.73;;
45136;SDS011;30894;51.740;19.498;2022-07-29T16:06:58;1.80;;;0.70;;
45136;SDS011;30894;51.740;19.498;2022-07-29T16:09:25;1.55;;;0.70;;
45136;SDS011;30894;51.740;19.498;2022-07-29T16:11:50;1.73;;;0.65;;
45136;SDS011;30894;51.740;19.498;2022-07-29T16:14:18;2.35;;;0.80;;
45136;SDS011;30894;51.740;19.498;2022-07-29T16:16:45;3.13;;;0.70;;
45136;SDS011;30894;51.740;19.498;2022-07-29T16:19:10;1.10;;;1.00;;
45136;SDS011;30894;51.740;19.498;2022-07-29T16:21:37;3.33;;;1.30;;
45136;SDS011;30894;51.740;19.498;2022-07-29T16:24:03;2.72;;;1.52;;
45136;SDS011;30894;51.740;19.498;2022-07-29T16:26:30;3.92;;;0.90;;
45136;SDS011;30894;51.740;19.498;2022-07-29T16:28:58;1.02;;;0.93;;
45136;SDS011;30894;51.740;19.498;2022-07-29T16:31:24;2.42;;;1.10;;
45136;SDS011;30894;51.740;19.498;2022-07-29T16:33:51;2.90;;;1.00;;
45136;SDS011;30894;51.740;19.498;2022-07-29T16:36:18;2.15;;;0.90;;
45136;SDS011;30894;51.740;19.498;2022-07-29T16:38:44;1.63;;;0.82;;
45136;SDS011;30894;51.740;19.498;2022-07-29T16:41:11;1.33;;;0.80;;
45136;SDS011;30894;51.740;19.498;2022-07-29T16:43:37;0.98;;;0.68;;
45136;SDS011;30894;51.740;19.498;2022-07-29T16:46:03;7.85;;;1.02;;
45136;SDS011;30894;51.740;19.498;2022-07-29T16:48:33;3.40;;;0.80;;
45136;SDS011;30894;51.740;19.498;2022-07-29T16:51:00;1.52;;;0.70;;
45136;SDS011;30894;51.740;19.498;2022-07-29T16:53:25;0.65;;;0.65;;
45136;SDS011;30894;51.740;19.498;2022-07-29T16:55:51;1.00;;;0.80;;
45136;SDS011;30894;51.740;19.498;2022-07-29T16:58:18;6.82;;;1.05;;
45136;SDS011;30894;51.740;19.498;2022-07-29T17:00:43;1.92;;;0.90;;
45136;SDS011;30894;51.740;19.498;2022-07-29T17:03:09;4.35;;;1.02;;
45136;SDS011;30894;51.740;19.498;2022-07-29T17:05:35;2.58;;;0.90;;
45136;SDS011;30894;51.740;19.498;2022-07-29T17:08:01;3.70;;;0.85;;
45136;SDS011;30894;51.740;19.498;2022-07-29T17:10:27;0.95;;;0.77;;
45136;SDS011;30894;51.740;19.498;2022-07-29T17:12:54;2.03;;;0.70;;
45136;SDS011;30894;51.740;19.498;2022-07-29T17:15:20;1.55;;;0.80;;
45136;SDS011;30894;51.740;19.498;2022-07-29T17:17:46;0.90;;;0.63;;
45136;SDS011;30894;51.740;19.498;2022-07-29T17:20:12;2.45;;;0.80;;
45136;SDS011;30894;51.740;19.498;2022-07-29T17:22:38;0.73;;;0.60;;
45136;SDS011;30894;51.740;19.498;2022-07-29T17:25:05;0.70;;;0.70;;
45136;SDS011;30894;51.740;19.498;2022-07-29T17:27:32;2.25;;;0.80;;
45136;SDS011;30894;51.740;19.498;2022-07-29T17:29:59;4.57;;;0.77;;
45136;SDS011;30894;51.740;19.498;2022-07-29T17:32:25;2.22;;;0.85;;
45136;SDS011;30894;51.740;19.498;2022-07-29T17:34:51;5.28;;;1.00;;
45136;SDS011;30894;51.740;19.498;2022-07-29T17:37:17;1.02;;;0.80;;
45136;SDS011;30894;51.740;19.498;2022-07-29T17:39:43;0.60;;;0.60;;
45136;SDS011;30894;51.740;19.498;2022-07-29T17:42:11;1.65;;;0.45;;
45136;SDS011;30894;51.740;19.498;2022-07-29T17:44:38;0.77;;;0.75;;
45136;SDS011;30894;51.740;19.498;2022-07-29T17:47:05;3.10;;;1.10;;
45136;SDS011;30894;51.740;19.498;2022-07-29T17:49:31;2.17;;;1.10;;
45136;SDS011;30894;51.740;19.498;2022-07-29T17:51:58;2.72;;;1.05;;
45136;SDS011;30894;51.740;19.498;2022-07-29T17:54:24;2.50;;;1.00;;
45136;SDS011;30894;51.740;19.498;2022-07-29T17:56:50;6.05;;;1.00;;
45136;SDS011;30894;51.740;19.498;2022-07-29T17:59:16;1.65;;;0.90;;
45136;SDS011;30894;51.740;19.498;2022-07-29T18:01:42;0.80;;;0.70;;
45136;SDS011;30894;51.740;19.498;2022-07-29T18:04:08;3.22;;;0.70;;
45136;SDS011;30894;51.740;19.498;2022-07-29T18:06:35;1.75;;;0.70;;
45136;SDS011;30894;51.740;19.498;2022-07-29T18:09:03;3.28;;;0.80;;
45136;SDS011;30894;51.740;19.498;2022-07-29T18:11:30;2.42;;;0.88;;
45136;SDS011;30894;51.740;19.498;2022-07-29T18:13:56;0.70;;;0.70;;
45136;SDS011;30894;51.740;19.498;2022-07-29T18:16:22;2.88;;;0.80;;
45136;SDS011;30894;51.740;19.498;2022-07-29T18:18:49;2.85;;;0.90;;
45136;SDS011;30894;51.740;19.498;2022-07-29T18:21:15;4.55;;;1.05;;
45136;SDS011;30894;51.740;19.498;2022-07-29T18:23:40;2.97;;;0.80;;